createdAt,value
2023-01-15T00:00:01.783Z,86
2023-01-15T00:01:00.866Z,85
2023-01-15T00:02:00.932Z,85
2023-01-15T00:03:00.945Z,85
2023-01-15T00:04:01.004Z,85
2023-01-15T00:05:01.756Z,85
2023-01-15T00:06:00.957Z,85
2023-01-15T00:07:00.900Z,85
2023-01-15T00:08:00.964Z,85
2023-01-15T00:09:00.915Z,85
2023-01-15T00:10:01.844Z,85
2023-01-15T00:11:00.932Z,85
2023-01-15T00:12:01.000Z,85
2023-01-15T00:13:00.936Z,85
2023-01-15T00:14:01.006Z,85
2023-01-15T00:15:01.627Z,85
2023-01-15T00:16:01.065Z,85
2023-01-15T00:17:00.965Z,85
2023-01-15T00:18:01.027Z,85
2023-01-15T00:19:00.964Z,85
2023-01-15T00:20:02.203Z,85
2023-01-15T00:21:00.983Z,85
2023-01-15T00:22:01.094Z,85
2023-01-15T00:23:01.008Z,85
2023-01-15T00:24:01.085Z,85
2023-01-15T00:25:01.668Z,85
2023-01-15T00:26:01.101Z,85
2023-01-15T00:27:01.077Z,85
2023-01-15T00:28:01.889Z,85
2023-01-15T00:29:01.031Z,85
2023-01-15T00:30:02.486Z,85
2023-01-15T00:31:01.208Z,85
2023-01-15T00:32:01.167Z,85
2023-01-15T00:33:01.084Z,85
2023-01-15T00:34:01.656Z,85
2023-01-15T00:35:01.786Z,85
2023-01-15T00:36:01.628Z,85
2023-01-15T00:37:01.114Z,85
2023-01-15T00:38:01.639Z,85
2023-01-15T00:39:01.143Z,86
2023-01-15T00:40:02.532Z,86
2023-01-15T00:41:01.611Z,86
2023-01-15T00:42:01.719Z,86
2023-01-15T00:43:01.641Z,86
2023-01-15T00:44:01.698Z,86
2023-01-15T00:45:02.156Z,86
2023-01-15T00:46:00.288Z,86
2023-01-15T00:47:00.195Z,86
2023-01-15T00:48:00.552Z,86
2023-01-15T00:49:00.226Z,86
2023-01-15T00:50:01.705Z,86
2023-01-15T00:51:00.231Z,86
2023-01-15T00:52:00.587Z,86
2023-01-15T00:53:00.249Z,86
2023-01-15T00:54:00.326Z,87
2023-01-15T00:55:00.749Z,87
2023-01-15T00:56:00.572Z,86
2023-01-15T00:57:00.267Z,86
2023-01-15T00:58:00.567Z,86
2023-01-15T00:59:00.268Z,86
2023-01-15T01:00:01.017Z,86
2023-01-15T01:01:00.481Z,86
2023-01-15T01:02:00.498Z,87
2023-01-15T01:03:00.338Z,87
2023-01-15T01:04:00.573Z,87
2023-01-15T01:05:00.927Z,87
2023-01-15T01:06:00.424Z,87
2023-01-15T01:07:00.374Z,87
2023-01-15T01:08:00.446Z,87
2023-01-15T01:09:00.384Z,87
2023-01-15T01:10:01.105Z,87
2023-01-15T01:11:00.386Z,87
2023-01-15T01:12:00.472Z,87
2023-01-15T01:13:00.381Z,87
2023-01-15T01:14:00.488Z,87
2023-01-15T01:15:00.911Z,87
2023-01-15T01:16:00.587Z,87
2023-01-15T01:17:00.424Z,87
2023-01-15T01:18:00.563Z,87
2023-01-15T01:19:00.441Z,87
2023-01-15T01:20:01.619Z,87
2023-01-15T01:21:00.463Z,87
2023-01-15T01:22:00.570Z,87
2023-01-15T01:23:00.460Z,87
2023-01-15T01:24:00.563Z,87
2023-01-15T01:25:00.966Z,87
2023-01-15T01:26:00.567Z,87
2023-01-15T01:27:00.524Z,87
2023-01-15T01:28:00.616Z,87
2023-01-15T01:29:00.526Z,87
2023-01-15T01:30:01.696Z,87
2023-01-15T01:31:00.535Z,87
2023-01-15T01:32:00.623Z,87
2023-01-15T01:33:00.566Z,87
2023-01-15T01:34:00.682Z,86
2023-01-15T01:35:01.104Z,86
2023-01-15T01:36:00.663Z,86
2023-01-15T01:37:00.576Z,86
2023-01-15T01:38:00.646Z,86
2023-01-15T01:39:00.591Z,86
2023-01-15T01:40:01.741Z,86
2023-01-15T01:41:00.605Z,86
2023-01-15T01:42:00.694Z,86
2023-01-15T01:43:00.624Z,86
2023-01-15T01:44:00.720Z,86
2023-01-15T01:45:01.778Z,86
2023-01-15T01:46:00.838Z,86
2023-01-15T01:47:00.659Z,86
2023-01-15T01:48:00.730Z,86
2023-01-15T01:49:00.677Z,86
2023-01-15T01:50:01.733Z,86
2023-01-15T01:51:00.710Z,86
2023-01-15T01:52:00.787Z,86
2023-01-15T01:53:00.709Z,86
2023-01-15T01:54:00.774Z,86
2023-01-15T01:55:01.691Z,86
2023-01-15T01:56:00.784Z,86
2023-01-15T01:57:00.750Z,86
2023-01-15T01:58:00.834Z,86
2023-01-15T01:59:00.726Z,86
2023-01-15T02:00:01.876Z,86
2023-01-15T02:01:01.020Z,86
2023-01-15T02:02:01.009Z,86
2023-01-15T02:03:02.059Z,86
2023-01-15T02:04:00.886Z,86
2023-01-15T02:05:01.684Z,86
2023-01-15T02:06:00.901Z,86
2023-01-15T02:07:00.803Z,86
2023-01-15T02:08:00.866Z,86
2023-01-15T02:09:00.871Z,86
2023-01-15T02:10:01.734Z,86
2023-01-15T02:11:00.835Z,86
2023-01-15T02:12:00.918Z,86
2023-01-15T02:13:00.859Z,86
2023-01-15T02:14:00.940Z,86
2023-01-15T02:15:01.769Z,86
2023-01-15T02:16:00.984Z,86
2023-01-15T02:17:00.897Z,86
2023-01-15T02:18:01.004Z,86
2023-01-15T02:19:00.921Z,86
2023-01-15T02:20:01.824Z,86
2023-01-15T02:21:00.942Z,85
2023-01-15T02:22:01.000Z,85
2023-01-15T02:23:00.938Z,85
2023-01-15T02:24:03.066Z,85
2023-01-15T02:25:01.616Z,85
2023-01-15T02:26:01.029Z,85
2023-01-15T02:27:01.005Z,85
2023-01-15T02:28:01.047Z,85
2023-01-15T02:29:00.983Z,85
2023-01-15T02:30:02.343Z,85
2023-01-15T02:31:00.999Z,85
2023-01-15T02:32:01.070Z,85
2023-01-15T02:33:01.038Z,85
2023-01-15T02:34:01.105Z,85
2023-01-15T02:35:01.693Z,85
2023-01-15T02:36:01.139Z,85
2023-01-15T02:37:01.040Z,85
2023-01-15T02:38:01.098Z,84
2023-01-15T02:39:01.281Z,84
2023-01-15T02:40:02.421Z,84
2023-01-15T02:41:01.080Z,84
2023-01-15T02:42:01.633Z,84
2023-01-15T02:43:01.117Z,84
2023-01-15T02:44:01.623Z,84
2023-01-15T02:45:01.782Z,84
2023-01-15T02:46:01.688Z,84
2023-01-15T02:47:01.119Z,84
2023-01-15T02:48:01.637Z,84
2023-01-15T02:49:01.138Z,84
2023-01-15T02:50:03.002Z,83
2023-01-15T02:51:01.643Z,83
2023-01-15T02:52:01.585Z,83
2023-01-15T02:53:01.660Z,83
2023-01-15T02:54:00.277Z,83
2023-01-15T02:55:00.963Z,83
2023-01-15T02:56:00.296Z,83
2023-01-15T02:57:00.232Z,83
2023-01-15T02:58:00.584Z,83
2023-01-15T02:59:00.240Z,83
2023-01-15T03:00:00.997Z,83
2023-01-15T03:01:00.420Z,83
2023-01-15T03:02:00.845Z,83
2023-01-15T03:03:00.293Z,83
2023-01-15T03:04:00.380Z,83
2023-01-15T03:05:00.772Z,83
2023-01-15T03:06:00.799Z,83
2023-01-15T03:07:00.316Z,83
2023-01-15T03:08:00.432Z,83
2023-01-15T03:09:00.366Z,82
2023-01-15T03:10:01.031Z,82
2023-01-15T03:11:00.371Z,82
2023-01-15T03:12:00.430Z,82
2023-01-15T03:13:00.351Z,82
2023-01-15T03:14:00.608Z,82
2023-01-15T03:15:00.915Z,82
2023-01-15T03:16:00.457Z,82
2023-01-15T03:17:00.389Z,82
2023-01-15T03:18:00.482Z,82
2023-01-15T03:19:00.415Z,82
2023-01-15T03:20:01.124Z,82
2023-01-15T03:21:00.440Z,83
2023-01-15T03:22:00.602Z,83
2023-01-15T03:23:00.458Z,82
2023-01-15T03:24:00.536Z,82
2023-01-15T03:25:01.013Z,82
2023-01-15T03:26:00.604Z,83
2023-01-15T03:27:00.482Z,83
2023-01-15T03:28:00.543Z,83
2023-01-15T03:29:00.482Z,83
2023-01-15T03:30:01.733Z,83
2023-01-15T03:31:00.562Z,83
2023-01-15T03:32:00.577Z,83
2023-01-15T03:33:00.523Z,83
2023-01-15T03:34:00.586Z,83
2023-01-15T03:35:01.770Z,83
2023-01-15T03:36:00.611Z,83
2023-01-15T03:37:00.535Z,83
2023-01-15T03:38:00.664Z,83
2023-01-15T03:39:00.570Z,83
2023-01-15T03:40:01.706Z,83
2023-01-15T03:41:00.570Z,83
2023-01-15T03:42:03.732Z,82
2023-01-15T03:43:00.583Z,82
2023-01-15T03:44:00.722Z,83
2023-01-15T03:45:01.147Z,83
2023-01-15T03:46:00.675Z,82
2023-01-15T03:47:00.606Z,82
2023-01-15T03:48:00.692Z,82
2023-01-15T03:49:00.624Z,82
2023-01-15T03:50:01.794Z,82
2023-01-15T03:51:00.650Z,82
2023-01-15T03:52:00.770Z,82
2023-01-15T03:53:00.656Z,82
2023-01-15T03:54:00.801Z,82
2023-01-15T03:55:01.726Z,82
2023-01-15T03:56:00.766Z,83
2023-01-15T03:57:00.688Z,83
2023-01-15T03:58:00.760Z,83
2023-01-15T03:59:00.725Z,82
2023-01-15T04:00:01.791Z,82
2023-01-15T04:01:00.877Z,82
2023-01-15T04:02:00.925Z,82
2023-01-15T04:03:00.738Z,82
2023-01-15T04:04:00.911Z,82
2023-01-15T04:05:01.682Z,82
2023-01-15T04:06:00.900Z,82
2023-01-15T04:07:00.793Z,82
2023-01-15T04:08:00.904Z,82
2023-01-15T04:09:00.811Z,81
2023-01-15T04:10:01.732Z,81
2023-01-15T04:11:00.816Z,81
2023-01-15T04:12:00.897Z,81
2023-01-15T04:13:00.822Z,81
2023-01-15T04:14:00.943Z,81
2023-01-15T04:15:01.665Z,81
2023-01-15T04:16:01.030Z,81
2023-01-15T04:17:00.879Z,81
2023-01-15T04:18:00.945Z,81
2023-01-15T04:19:00.858Z,80
2023-01-15T04:20:01.810Z,80
2023-01-15T04:21:00.905Z,80
2023-01-15T04:22:00.995Z,80
2023-01-15T04:23:00.894Z,80
2023-01-15T04:24:01.009Z,80
2023-01-15T04:25:01.807Z,79
2023-01-15T04:26:01.049Z,79
2023-01-15T04:27:00.943Z,79
2023-01-15T04:28:01.002Z,79
2023-01-15T04:29:00.953Z,78
2023-01-15T04:30:02.575Z,78
2023-01-15T04:31:01.039Z,78
2023-01-15T04:32:01.061Z,78
2023-01-15T04:33:00.992Z,78
2023-01-15T04:34:01.062Z,78
2023-01-15T04:35:01.664Z,78
2023-01-15T04:36:01.091Z,78
2023-01-15T04:37:01.019Z,78
2023-01-15T04:38:01.144Z,78
2023-01-15T04:39:01.030Z,78
2023-01-15T04:40:02.259Z,78
2023-01-15T04:41:01.076Z,78
2023-01-15T04:42:01.280Z,78
2023-01-15T04:43:01.065Z,78
2023-01-15T04:44:01.165Z,79
2023-01-15T04:45:01.773Z,79
2023-01-15T04:46:01.220Z,79
2023-01-15T04:47:01.091Z,79
2023-01-15T04:48:01.636Z,79
2023-01-15T04:49:01.101Z,79
2023-01-15T04:50:02.525Z,79
2023-01-15T04:51:01.133Z,79
2023-01-15T04:52:01.654Z,79
2023-01-15T04:53:01.128Z,79
2023-01-15T04:54:01.691Z,79
2023-01-15T04:55:02.461Z,79
2023-01-15T04:56:01.607Z,79
2023-01-15T04:57:01.644Z,79
2023-01-15T04:58:01.706Z,79
2023-01-15T04:59:01.649Z,79
2023-01-15T05:00:02.864Z,79
2023-01-15T05:01:00.221Z,79
2023-01-15T05:02:06.077Z,79
2023-01-15T05:03:00.230Z,79
2023-01-15T05:04:00.284Z,79
2023-01-15T05:05:00.736Z,79
2023-01-15T05:06:00.326Z,79
2023-01-15T05:07:00.236Z,80
2023-01-15T05:08:00.355Z,80
2023-01-15T05:09:00.261Z,80
2023-01-15T05:10:01.049Z,80
2023-01-15T05:11:00.268Z,80
2023-01-15T05:12:00.349Z,80
2023-01-15T05:13:00.296Z,80
2023-01-15T05:14:00.517Z,80
2023-01-15T05:15:00.797Z,79
2023-01-15T05:16:00.448Z,79
2023-01-15T05:17:00.326Z,79
2023-01-15T05:18:00.418Z,79
2023-01-15T05:19:00.327Z,79
2023-01-15T05:20:01.079Z,79
2023-01-15T05:21:00.360Z,79
2023-01-15T05:22:00.445Z,79
2023-01-15T05:23:00.391Z,79
2023-01-15T05:24:00.439Z,79
2023-01-15T05:25:01.729Z,79
2023-01-15T05:26:00.461Z,79
2023-01-15T05:27:00.410Z,79
2023-01-15T05:28:00.464Z,79
2023-01-15T05:29:00.408Z,79
2023-01-15T05:30:01.180Z,78
2023-01-15T05:31:00.466Z,78
2023-01-15T05:32:00.542Z,78
2023-01-15T05:33:00.445Z,78
2023-01-15T05:34:00.516Z,78
2023-01-15T05:35:00.952Z,78
2023-01-15T05:36:00.539Z,78
2023-01-15T05:37:00.493Z,78
2023-01-15T05:38:00.536Z,77
2023-01-15T05:39:00.518Z,77
2023-01-15T05:40:01.691Z,77
2023-01-15T05:41:00.525Z,78
2023-01-15T05:42:00.593Z,78
2023-01-15T05:43:00.755Z,78
2023-01-15T05:44:00.593Z,78
2023-01-15T05:45:01.034Z,78
2023-01-15T05:46:00.656Z,77
2023-01-15T05:47:00.535Z,77
2023-01-15T05:48:00.620Z,77
2023-01-15T05:49:00.611Z,77
2023-01-15T05:50:01.767Z,76
2023-01-15T05:51:00.597Z,76
2023-01-15T05:52:00.731Z,76
2023-01-15T05:53:00.626Z,76
2023-01-15T05:54:00.685Z,76
2023-01-15T05:55:01.357Z,76
2023-01-15T05:56:00.695Z,76
2023-01-15T05:57:00.635Z,76
2023-01-15T05:58:00.704Z,76
2023-01-15T05:59:00.649Z,76
2023-01-15T06:00:01.788Z,76
2023-01-15T06:01:00.716Z,76
2023-01-15T06:02:00.772Z,76
2023-01-15T06:03:00.815Z,75
2023-01-15T06:04:00.816Z,75
2023-01-15T06:05:01.685Z,75
2023-01-15T06:06:00.797Z,75
2023-01-15T06:07:00.723Z,75
2023-01-15T06:08:01.492Z,75
2023-01-15T06:09:00.738Z,75
2023-01-15T06:10:01.800Z,75
2023-01-15T06:11:00.749Z,75
2023-01-15T06:12:00.825Z,75
2023-01-15T06:13:00.804Z,75
2023-01-15T06:14:00.836Z,75
2023-01-15T06:15:01.667Z,75
2023-01-15T06:16:00.938Z,75
2023-01-15T06:17:00.793Z,75
2023-01-15T06:18:01.112Z,76
2023-01-15T06:19:00.844Z,76
2023-01-15T06:20:02.812Z,75
2023-01-15T06:21:00.847Z,75
2023-01-15T06:22:00.914Z,76
2023-01-15T06:23:00.844Z,76
2023-01-15T06:24:00.966Z,76
2023-01-15T06:25:01.814Z,76
2023-01-15T06:26:00.965Z,76
2023-01-15T06:27:00.899Z,76
2023-01-15T06:28:00.966Z,76
2023-01-15T06:29:00.916Z,76
2023-01-15T06:30:02.213Z,76
2023-01-15T06:31:00.950Z,77
2023-01-15T06:32:00.999Z,77
2023-01-15T06:33:00.957Z,77
2023-01-15T06:34:01.081Z,77
2023-01-15T06:35:01.658Z,77
2023-01-15T06:36:01.084Z,77
2023-01-15T06:37:00.980Z,77
2023-01-15T06:38:01.048Z,77
2023-01-15T06:39:00.999Z,77
2023-01-15T06:40:01.926Z,77
2023-01-15T06:41:01.009Z,77
2023-01-15T06:42:01.129Z,77
2023-01-15T06:43:01.041Z,78
2023-01-15T06:44:01.102Z,78
2023-01-15T06:45:01.680Z,78
2023-01-15T06:46:01.114Z,78
2023-01-15T06:47:01.077Z,78
2023-01-15T06:48:01.170Z,78
2023-01-15T06:49:01.082Z,78
2023-01-15T06:50:03.078Z,78
2023-01-15T06:51:01.107Z,78
2023-01-15T06:52:01.180Z,78
2023-01-15T06:53:01.120Z,78
2023-01-15T06:54:01.695Z,78
2023-01-15T06:55:01.814Z,78
2023-01-15T06:56:01.711Z,78
2023-01-15T06:57:01.171Z,78
2023-01-15T06:58:01.679Z,78
2023-01-15T06:59:01.163Z,78
2023-01-15T07:00:02.540Z,78
2023-01-15T07:01:01.305Z,79
2023-01-15T07:02:01.716Z,79
2023-01-15T07:03:01.671Z,79
2023-01-15T07:04:01.686Z,79
2023-01-15T07:05:02.326Z,79
2023-01-15T07:06:00.334Z,79
2023-01-15T07:07:00.257Z,79
2023-01-15T07:08:00.286Z,79
2023-01-15T07:09:00.273Z,79
2023-01-15T07:10:00.999Z,79
2023-01-15T07:11:00.320Z,80
2023-01-15T07:12:00.398Z,80
2023-01-15T07:13:00.310Z,80
2023-01-15T07:14:00.354Z,80
2023-01-15T07:15:01.697Z,80
2023-01-15T07:16:00.389Z,80
2023-01-15T07:17:00.377Z,80
2023-01-15T07:18:00.405Z,81
2023-01-15T07:19:00.342Z,81
2023-01-15T07:20:01.095Z,81
2023-01-15T07:21:00.371Z,81
2023-01-15T07:22:00.584Z,81
2023-01-15T07:23:00.396Z,81
2023-01-15T07:24:00.459Z,81
2023-01-15T07:25:00.909Z,81
2023-01-15T07:26:00.454Z,81
2023-01-15T07:27:00.401Z,81
2023-01-15T07:28:00.499Z,81
2023-01-15T07:29:00.442Z,81
2023-01-15T07:30:01.156Z,81
2023-01-15T07:31:00.535Z,81
2023-01-15T07:32:00.526Z,81
2023-01-15T07:33:00.468Z,81
2023-01-15T07:34:00.513Z,81
2023-01-15T07:35:01.118Z,81
2023-01-15T07:36:00.557Z,81
2023-01-15T07:37:00.486Z,81
2023-01-15T07:38:00.592Z,81
2023-01-15T07:39:00.520Z,81
2023-01-15T07:40:01.721Z,81
2023-01-15T07:41:00.515Z,81
2023-01-15T07:42:00.603Z,81
2023-01-15T07:43:00.528Z,81
2023-01-15T07:44:00.604Z,81
2023-01-15T07:45:01.008Z,81
2023-01-15T07:46:00.917Z,81
2023-01-15T07:47:00.556Z,81
2023-01-15T07:48:00.636Z,81
2023-01-15T07:49:00.573Z,81
2023-01-15T07:50:01.836Z,81
2023-01-15T07:51:00.602Z,81
2023-01-15T07:52:00.679Z,81
2023-01-15T07:53:00.599Z,81
2023-01-15T07:54:00.684Z,81
2023-01-15T07:55:01.670Z,81
2023-01-15T07:56:00.684Z,81
2023-01-15T07:57:00.629Z,81
2023-01-15T07:58:00.716Z,81
2023-01-15T07:59:00.625Z,81
2023-01-15T08:00:01.785Z,81
2023-01-15T08:01:00.758Z,81
2023-01-15T08:02:00.893Z,80
2023-01-15T08:03:00.694Z,80
2023-01-15T08:04:00.843Z,80
2023-01-15T08:05:01.713Z,80
2023-01-15T08:06:00.775Z,80
2023-01-15T08:07:00.714Z,80
2023-01-15T08:08:00.801Z,80
2023-01-15T08:09:00.740Z,80
2023-01-15T08:10:02.439Z,80
2023-01-15T08:11:00.748Z,80
2023-01-15T08:12:00.847Z,79
2023-01-15T08:13:00.777Z,79
2023-01-15T08:14:00.857Z,79
2023-01-15T08:15:01.788Z,79
2023-01-15T08:16:00.877Z,79
2023-01-15T08:17:00.805Z,79
2023-01-15T08:18:00.874Z,79
2023-01-15T08:19:00.796Z,79
2023-01-15T08:20:01.919Z,79
2023-01-15T08:21:00.832Z,79
2023-01-15T08:22:00.932Z,79
2023-01-15T08:23:00.822Z,79
2023-01-15T08:24:00.910Z,79
2023-01-15T08:25:01.763Z,78
2023-01-15T08:26:00.952Z,78
2023-01-15T08:27:00.865Z,78
2023-01-15T08:28:00.943Z,78
2023-01-15T08:29:00.864Z,78
2023-01-15T08:30:01.804Z,78
2023-01-15T08:31:00.886Z,78
2023-01-15T08:32:03.153Z,78
2023-01-15T08:33:00.924Z,78
2023-01-15T08:34:00.992Z,78
2023-01-15T08:35:01.817Z,78
2023-01-15T08:36:00.985Z,78
2023-01-15T08:37:00.910Z,79
2023-01-15T08:38:00.988Z,79
2023-01-15T08:39:00.929Z,79
2023-01-15T08:40:01.873Z,80
2023-01-15T08:41:00.940Z,80
2023-01-15T08:42:01.046Z,80
2023-01-15T08:43:00.934Z,80
2023-01-15T08:44:01.028Z,80
2023-01-15T08:45:01.654Z,80
2023-01-15T08:46:01.170Z,80
2023-01-15T08:47:00.989Z,80
2023-01-15T08:48:01.068Z,81
2023-01-15T08:49:00.997Z,81
2023-01-15T08:50:01.935Z,81
2023-01-15T08:51:01.025Z,81
2023-01-15T08:52:01.147Z,81
2023-01-15T08:53:01.035Z,81
2023-01-15T08:54:01.130Z,81
2023-01-15T08:55:01.712Z,81
2023-01-15T08:56:01.115Z,81
2023-01-15T08:57:01.064Z,81
2023-01-15T08:58:01.192Z,82
2023-01-15T08:59:01.066Z,82
2023-01-15T09:00:04.712Z,82
2023-01-15T09:01:01.217Z,82
2023-01-15T09:02:01.300Z,82
2023-01-15T09:03:01.129Z,83
2023-01-15T09:04:01.191Z,83
2023-01-15T09:05:02.478Z,84
2023-01-15T09:06:01.660Z,84
2023-01-15T09:07:01.196Z,84
2023-01-15T09:08:01.667Z,84
2023-01-15T09:09:01.164Z,84
2023-01-15T09:10:02.349Z,85
2023-01-15T09:11:01.169Z,85
2023-01-15T09:12:01.611Z,85
2023-01-15T09:13:01.667Z,85
2023-01-15T09:14:01.719Z,85
2023-01-15T09:15:03.353Z,85
2023-01-15T09:16:00.303Z,85
2023-01-15T09:17:00.222Z,85
2023-01-15T09:18:00.298Z,86
2023-01-15T09:19:00.225Z,86
2023-01-15T09:20:00.963Z,86
2023-01-15T09:21:00.258Z,86
2023-01-15T09:22:00.360Z,86
2023-01-15T09:23:00.254Z,86
2023-01-15T09:24:00.352Z,86
2023-01-15T09:25:00.774Z,86
2023-01-15T09:26:00.336Z,86
2023-01-15T09:27:00.312Z,86
2023-01-15T09:28:00.436Z,87
2023-01-15T09:29:00.307Z,87
2023-01-15T09:30:01.129Z,87
2023-01-15T09:31:00.398Z,87
2023-01-15T09:32:00.404Z,87
2023-01-15T09:33:00.359Z,87
2023-01-15T09:34:00.451Z,87
2023-01-15T09:35:00.853Z,87
2023-01-15T09:36:00.444Z,87
2023-01-15T09:37:00.369Z,87
2023-01-15T09:38:00.461Z,87
2023-01-15T09:39:00.395Z,87
2023-01-15T09:40:01.142Z,87
2023-01-15T09:41:00.377Z,87
2023-01-15T09:42:00.473Z,87
2023-01-15T09:43:00.401Z,87
2023-01-15T09:44:00.481Z,87
2023-01-15T09:45:01.231Z,87
2023-01-15T09:46:00.555Z,87
2023-01-15T09:47:00.444Z,87
2023-01-15T09:48:00.519Z,87
2023-01-15T09:49:00.437Z,87
2023-01-15T09:50:01.733Z,87
2023-01-15T09:51:00.515Z,86
2023-01-15T09:52:00.532Z,86
2023-01-15T09:53:00.479Z,85
2023-01-15T09:54:00.567Z,85
2023-01-15T09:55:00.990Z,84
2023-01-15T09:56:00.546Z,84
2023-01-15T09:57:00.530Z,84
2023-01-15T09:58:00.566Z,84
2023-01-15T09:59:00.518Z,84
2023-01-15T10:00:01.731Z,84
2023-01-15T10:01:00.657Z,84
2023-01-15T10:02:00.628Z,84
2023-01-15T10:03:00.668Z,84
2023-01-15T10:04:00.841Z,83
2023-01-15T10:05:02.651Z,83
2023-01-15T10:06:00.679Z,83
2023-01-15T10:07:00.607Z,83
2023-01-15T10:08:00.700Z,82
2023-01-15T10:09:00.647Z,82
2023-01-15T10:10:01.745Z,82
2023-01-15T10:11:00.651Z,82
2023-01-15T10:12:00.714Z,82
2023-01-15T10:13:00.655Z,81
2023-01-15T10:14:00.734Z,81
2023-01-15T10:15:01.706Z,81
2023-01-15T10:16:00.780Z,80
2023-01-15T10:17:00.763Z,80
2023-01-15T10:18:00.765Z,79
2023-01-15T10:19:00.685Z,79
2023-01-15T10:20:01.842Z,79
2023-01-15T10:21:00.734Z,78
2023-01-15T10:22:00.773Z,78
2023-01-15T10:23:00.718Z,78
2023-01-15T10:24:00.780Z,78
2023-01-15T10:25:01.661Z,78
2023-01-15T10:26:00.806Z,78
2023-01-15T10:27:00.778Z,78
2023-01-15T10:28:00.797Z,78
2023-01-15T10:29:00.767Z,77
2023-01-15T10:30:01.839Z,77
2023-01-15T10:31:00.825Z,77
2023-01-15T10:32:00.855Z,77
2023-01-15T10:33:02.906Z,77
2023-01-15T10:34:00.875Z,77
2023-01-15T10:35:01.645Z,77
2023-01-15T10:36:00.904Z,76
2023-01-15T10:37:00.819Z,76
2023-01-15T10:38:00.900Z,76
2023-01-15T10:39:00.890Z,76
2023-01-15T10:40:01.783Z,76
2023-01-15T10:41:00.866Z,76
2023-01-15T10:42:00.951Z,76
2023-01-15T10:43:00.872Z,76
2023-01-15T10:44:00.961Z,76
2023-01-15T10:45:02.001Z,76
2023-01-15T10:46:01.034Z,75
2023-01-15T10:47:00.910Z,75
2023-01-15T10:48:00.981Z,75
2023-01-15T10:49:00.931Z,75
2023-01-15T10:50:01.812Z,75
2023-01-15T10:51:00.976Z,74
2023-01-15T10:52:01.025Z,74
2023-01-15T10:53:00.965Z,74
2023-01-15T10:54:01.042Z,73
2023-01-15T10:55:02.814Z,73
2023-01-15T10:56:01.044Z,73
2023-01-15T10:57:01.031Z,72
2023-01-15T10:58:09.881Z,72
2023-01-15T10:59:00.984Z,70
2023-01-15T11:00:05.738Z,70
2023-01-15T11:01:01.086Z,70
2023-01-15T11:02:01.160Z,70
2023-01-15T11:03:01.105Z,70
2023-01-15T11:04:01.105Z,69
2023-01-15T11:05:01.849Z,69
2023-01-15T11:06:01.131Z,69
2023-01-15T11:07:01.057Z,69
2023-01-15T11:08:39.374Z,69
2023-01-15T11:09:10.479Z,68
2023-01-15T11:10:02.389Z,68
2023-01-15T11:11:01.108Z,68
2023-01-15T11:12:01.663Z,68
2023-01-15T11:13:01.108Z,68
2023-01-15T11:14:01.671Z,67
2023-01-15T11:15:01.808Z,67
2023-01-15T11:16:01.670Z,67
2023-01-15T11:17:01.135Z,67
2023-01-15T11:18:01.671Z,67
2023-01-15T11:19:01.148Z,67
2023-01-15T11:20:02.385Z,67
2023-01-15T11:21:01.631Z,67
2023-01-15T11:22:01.663Z,67
2023-01-15T11:23:00.187Z,67
2023-01-15T11:24:00.262Z,67
2023-01-15T11:25:00.716Z,67
2023-01-15T11:26:00.300Z,67
2023-01-15T11:27:00.227Z,67
2023-01-15T11:28:00.285Z,67
2023-01-15T11:29:00.211Z,66
2023-01-15T11:30:00.977Z,66
2023-01-15T11:31:00.283Z,66
2023-01-15T11:32:00.321Z,65
2023-01-15T11:33:00.258Z,65
2023-01-15T11:34:00.323Z,65
2023-01-15T11:35:00.754Z,65
2023-01-15T11:36:00.421Z,65
2023-01-15T11:37:00.298Z,66
2023-01-15T11:38:00.404Z,66
2023-01-15T11:39:00.316Z,65
2023-01-15T11:40:01.019Z,65
2023-01-15T11:41:00.307Z,65
2023-01-15T11:42:00.397Z,65
2023-01-15T11:43:00.325Z,65
2023-01-15T11:44:00.451Z,64
2023-01-15T11:45:00.878Z,64
2023-01-15T11:46:00.469Z,64
2023-01-15T11:47:00.369Z,64
2023-01-15T11:48:00.492Z,64
2023-01-15T11:49:00.365Z,64
2023-01-15T11:50:01.830Z,64
2023-01-15T11:51:00.407Z,64
2023-01-15T11:52:00.503Z,64
2023-01-15T11:53:00.420Z,64
2023-01-15T11:54:00.486Z,64
2023-01-15T11:55:01.130Z,65
2023-01-15T11:56:00.529Z,65
2023-01-15T11:57:00.433Z,65
2023-01-15T11:58:00.497Z,65
2023-01-15T11:59:00.437Z,65
2023-01-15T12:00:01.571Z,65
2023-01-15T12:01:00.496Z,65
2023-01-15T12:02:00.567Z,66
2023-01-15T12:03:00.500Z,66
2023-01-15T12:04:00.713Z,66
2023-01-15T12:05:00.988Z,65
2023-01-15T12:06:00.581Z,65
2023-01-15T12:07:00.536Z,65
2023-01-15T12:08:00.631Z,65
2023-01-15T12:09:00.542Z,65
2023-01-15T12:10:01.761Z,66
2023-01-15T12:11:02.882Z,66
2023-01-15T12:12:00.632Z,65
2023-01-15T12:13:00.550Z,65
2023-01-15T12:14:00.658Z,65
2023-01-15T12:15:01.069Z,66
2023-01-15T12:16:00.657Z,66
2023-01-15T12:17:00.580Z,66
2023-01-15T12:18:00.662Z,66
2023-01-15T12:19:00.600Z,66
2023-01-15T12:20:01.800Z,66
2023-01-15T12:21:00.619Z,66
2023-01-15T12:22:00.689Z,66
2023-01-15T12:23:00.622Z,66
2023-01-15T12:24:00.721Z,66
2023-01-15T12:25:01.655Z,66
2023-01-15T12:26:00.725Z,66
2023-01-15T12:27:00.653Z,66
2023-01-15T12:28:00.710Z,66
2023-01-15T12:29:00.653Z,67
2023-01-15T12:30:01.750Z,67
2023-01-15T12:31:00.708Z,67
2023-01-15T12:32:00.783Z,67
2023-01-15T12:33:00.712Z,67
2023-01-15T12:34:00.784Z,67
2023-01-15T12:35:01.682Z,67
2023-01-15T12:36:00.800Z,67
2023-01-15T12:37:00.731Z,66
2023-01-15T12:38:00.874Z,66
2023-01-15T12:39:00.811Z,66
2023-01-15T12:40:01.752Z,66
2023-01-15T12:41:00.771Z,66
2023-01-15T12:42:00.859Z,66
2023-01-15T12:43:00.780Z,66
2023-01-15T12:44:00.877Z,66
2023-01-15T12:45:02.379Z,65
2023-01-15T12:46:00.884Z,65
2023-01-15T12:47:00.824Z,65
2023-01-15T12:48:00.904Z,66
2023-01-15T12:49:00.827Z,66
2023-01-15T12:50:01.755Z,66
2023-01-15T12:51:00.869Z,66
2023-01-15T12:52:00.935Z,66
2023-01-15T12:53:00.861Z,66
2023-01-15T12:54:00.958Z,66
2023-01-15T12:55:01.775Z,66
2023-01-15T12:56:01.022Z,66
2023-01-15T12:57:02.813Z,66
2023-01-15T12:58:00.969Z,66
2023-01-15T12:59:00.908Z,66
2023-01-15T13:00:01.835Z,67
2023-01-15T13:01:01.097Z,67
2023-01-15T13:02:01.185Z,67
2023-01-15T13:03:01.026Z,67
2023-01-15T13:04:01.063Z,67
2023-01-15T13:05:01.728Z,67
2023-01-15T13:06:01.078Z,66
2023-01-15T13:07:01.006Z,66
2023-01-15T13:08:01.107Z,66
2023-01-15T13:09:01.019Z,66
2023-01-15T13:10:02.667Z,66
2023-01-15T13:11:01.021Z,66
2023-01-15T13:12:01.134Z,66
2023-01-15T13:13:01.049Z,66
2023-01-15T13:14:01.157Z,66
2023-01-15T13:15:01.753Z,66
2023-01-15T13:16:01.171Z,66
2023-01-15T13:17:01.087Z,66
2023-01-15T13:18:01.599Z,65
2023-01-15T13:19:01.098Z,65
2023-01-15T13:20:02.503Z,65
2023-01-15T13:21:01.111Z,65
2023-01-15T13:22:01.601Z,65
2023-01-15T13:23:01.111Z,64
2023-01-15T13:24:01.631Z,64
2023-01-15T13:25:02.181Z,64
2023-01-15T13:26:01.674Z,64
2023-01-15T13:27:01.663Z,64
2023-01-15T13:28:01.579Z,64
2023-01-15T13:29:01.644Z,64
2023-01-15T13:30:02.623Z,64
2023-01-15T13:31:00.199Z,65
2023-01-15T13:32:00.277Z,65
2023-01-15T13:33:00.215Z,65
2023-01-15T13:34:00.283Z,65
2023-01-15T13:35:00.788Z,65
2023-01-15T13:36:00.303Z,65
2023-01-15T13:37:00.239Z,65
2023-01-15T13:38:00.370Z,65
2023-01-15T13:39:00.263Z,65
2023-01-15T13:40:01.720Z,65
2023-01-15T13:41:00.280Z,65
2023-01-15T13:42:00.373Z,65
2023-01-15T13:43:00.529Z,65
2023-01-15T13:44:00.401Z,65
2023-01-15T13:45:00.811Z,65
2023-01-15T13:46:00.482Z,65
2023-01-15T13:47:00.323Z,65
2023-01-15T13:48:00.397Z,66
2023-01-15T13:49:00.349Z,66
2023-01-15T13:50:01.122Z,66
2023-01-15T13:51:00.392Z,65
2023-01-15T13:52:00.435Z,65
2023-01-15T13:53:00.353Z,65
2023-01-15T13:54:00.448Z,65
2023-01-15T13:55:01.710Z,65
2023-01-15T13:56:00.457Z,64
2023-01-15T13:57:00.443Z,64
2023-01-15T13:58:00.502Z,64
2023-01-15T13:59:00.461Z,65
2023-01-15T14:00:01.703Z,65
2023-01-15T14:01:00.690Z,65
2023-01-15T14:02:00.629Z,65
2023-01-15T14:03:00.549Z,65
2023-01-15T14:04:00.557Z,65
2023-01-15T14:05:00.995Z,65
2023-01-15T14:06:00.581Z,64
2023-01-15T14:07:00.530Z,64
2023-01-15T14:08:00.566Z,65
2023-01-15T14:09:00.539Z,65
2023-01-15T14:10:01.717Z,65
2023-01-15T14:11:00.548Z,65
2023-01-15T14:12:00.632Z,65
2023-01-15T14:13:00.590Z,64
2023-01-15T14:14:00.645Z,64
2023-01-15T14:15:01.122Z,64